sensor_id;sensor_type;location;lat;lon;timestamp;P1;durP1;ratioP1;P2;durP2;ratioP2
58928;SDS011;44713;53.378;10.022;2023-03-01T00:01:28;12.05;;;6.35;;
58928;SDS011;44713;53.378;10.022;2023-03-01T00:03:55;12.52;;;6.30;;
58928;SDS011;44713;53.378;10.022;2023-03-01T00:06:22;11.20;;;6.13;;
58928;SDS011;44713;53.378;10.022;2023-03-01T00:08:47;10.70;;;6.68;;
58928;SDS011;44713;53.378;10.022;2023-03-01T00:11:18;11.10;;;5.78;;
58928;SDS011;44713;53.378;10.022;2023-03-01T00:13:46;10.45;;;6.22;;
58928;SDS011;44713;53.378;10.022;2023-03-01T00:16:14;9.98;;;5.82;;
58928;SDS011;44713;53.378;10.022;2023-03-01T00:18:41;11.88;;;6.80;;
58928;SDS011;44713;53.378;10.022;2023-03-01T00:21:06;11.55;;;6.28;;
58928;SDS011;44713;53.378;10.022;2023-03-01T00:23:33;11.48;;;6.82;;
58928;SDS011;44713;53.378;10.022;2023-03-01T00:25:59;10.82;;;7.00;;
58928;SDS011;44713;53.378;10.022;2023-03-01T00:28:24;12.88;;;6.85;;
58928;SDS011;44713;53.378;10.022;2023-03-01T00:30:50;11.55;;;6.45;;
58928;SDS011;44713;53.378;10.022;2023-03-01T00:33:15;11.60;;;6.28;;
58928;SDS011;44713;53.378;10.022;2023-03-01T00:35:41;12.40;;;6.18;;
58928;SDS011;44713;53.378;10.022;2023-03-01T00:38:06;14.10;;;5.88;;
58928;SDS011;44713;53.378;10.022;2023-03-01T00:40:33;9.45;;;5.70;;
58928;SDS011;44713;53.378;10.022;2023-03-01T00:42:59;12.23;;;5.80;;
58928;SDS011;44713;53.378;10.022;2023-03-01T00:45:25;12.48;;;6.57;;
58928;SDS011;44713;53.378;10.022;2023-03-01T00:47:52;12.93;;;6.13;;
58928;SDS011;44713;53.378;10.022;2023-03-01T00:50:17;8.95;;;5.45;;
58928;SDS011;44713;53.378;10.022;2023-03-01T00:52:43;11.77;;;6.50;;
58928;SDS011;44713;53.378;10.022;2023-03-01T00:55:09;12.73;;;6.30;;
58928;SDS011;44713;53.378;10.022;2023-03-01T00:57:35;14.35;;;6.50;;
58928;SDS011;44713;53.378;10.022;2023-03-01T01:00:00;15.02;;;6.05;;
58928;SDS011;44713;53.378;10.022;2023-03-01T01:02:26;11.40;;;5.95;;
58928;SDS011;44713;53.378;10.022;2023-03-01T01:04:52;12.02;;;5.75;;
58928;SDS011;44713;53.378;10.022;2023-03-01T01:07:17;9.82;;;5.72;;
58928;SDS011;44713;53.378;10.022;2023-03-01T01:09:45;9.52;;;5.70;;
58928;SDS011;44713;53.378;10.022;2023-03-01T01:12:10;10.13;;;5.68;;
58928;SDS011;44713;53.378;10.022;2023-03-01T01:14:36;10.95;;;5.53;;
58928;SDS011;44713;53.378;10.022;2023-03-01T01:17:01;10.68;;;5.78;;
58928;SDS011;44713;53.378;10.022;2023-03-01T01:19:26;8.60;;;5.35;;
58928;SDS011;44713;53.378;10.022;2023-03-01T01:21:53;7.80;;;5.07;;
58928;SDS011;44713;53.378;10.022;2023-03-01T01:24:18;8.70;;;5.60;;
58928;SDS011;44713;53.378;10.022;2023-03-01T01:26:44;7.30;;;4.55;;
58928;SDS011;44713;53.378;10.022;2023-03-01T01:29:10;9.02;;;5.03;;
58928;SDS011;44713;53.378;10.022;2023-03-01T01:31:36;8.20;;;4.90;;
58928;SDS011;44713;53.378;10.022;2023-03-01T01:34:05;9.40;;;5.20;;
58928;SDS011;44713;53.378;10.022;2023-03-01T01:36:33;10.90;;;5.45;;
58928;SDS011;44713;53.378;10.022;2023-03-01T01:38:59;11.27;;;5.40;;
58928;SDS011;44713;53.378;10.022;2023-03-01T01:41:26;11.57;;;5.70;;
58928;SDS011;44713;53.378;10.022;2023-03-01T01:46:38;7.70;;;5.25;;
58928;SDS011;44713;53.378;10.022;2023-03-01T01:54:31;9.50;;;5.57;;
58928;SDS011;44713;53.378;10.022;2023-03-01T01:57:03;9.30;;;5.18;;
58928;SDS011;44713;53.378;10.022;2023-03-01T01:59:32;8.05;;;4.82;;
58928;SDS011;44713;53.378;10.022;2023-03-01T02:01:59;10.18;;;5.13;;
58928;SDS011;44713;53.378;10.022;2023-03-01T02:04:28;8.32;;;5.20;;
58928;SDS011;44713;53.378;10.022;2023-03-01T02:06:58;11.60;;;5.10;;
58928;SDS011;44713;53.378;10.022;2023-03-01T02:09:28;8.88;;;5.10;;
58928;SDS011;44713;53.378;10.022;2023-03-01T02:11:56;10.02;;;5.18;;
58928;SDS011;44713;53.378;10.022;2023-03-01T02:14:22;9.15;;;5.00;;
58928;SDS011;44713;53.378;10.022;2023-03-01T02:16:48;9.45;;;4.88;;
58928;SDS011;44713;53.378;10.022;2023-03-01T02:19:18;9.00;;;5.00;;
58928;SDS011;44713;53.378;10.022;2023-03-01T02:21:59;9.93;;;5.18;;
58928;SDS011;44713;53.378;10.022;2023-03-01T02:24:35;8.15;;;4.80;;
58928;SDS011;44713;53.378;10.022;2023-03-01T02:27:10;11.20;;;4.22;;
58928;SDS011;44713;53.378;10.022;2023-03-01T02:29:36;6.43;;;4.47;;
58928;SDS011;44713;53.378;10.022;2023-03-01T02:32:02;7.30;;;4.53;;
58928;SDS011;44713;53.378;10.022;2023-03-01T02:34:29;8.85;;;4.30;;
58928;SDS011;44713;53.378;10.022;2023-03-01T02:39:42;4.95;;;3.55;;
58928;SDS011;44713;53.378;10.022;2023-03-01T02:42:12;5.07;;;3.72;;
58928;SDS011;44713;53.378;10.022;2023-03-01T02:44:40;7.43;;;3.58;;
58928;SDS011;44713;53.378;10.022;2023-03-01T02:47:05;5.68;;;3.60;;
58928;SDS011;44713;53.378;10.022;2023-03-01T02:49:32;5.35;;;3.47;;
58928;SDS011;44713;53.378;10.022;2023-03-01T02:52:01;6.07;;;3.08;;
58928;SDS011;44713;53.378;10.022;2023-03-01T02:57:34;8.65;;;3.33;;
58928;SDS011;44713;53.378;10.022;2023-03-01T03:00:04;7.90;;;4.03;;
58928;SDS011;44713;53.378;10.022;2023-03-01T03:02:33;6.30;;;3.50;;
58928;SDS011;44713;53.378;10.022;2023-03-01T03:05:17;6.50;;;3.55;;
58928;SDS011;44713;53.378;10.022;2023-03-01T03:07:46;5.97;;;3.55;;
58928;SDS011;44713;53.378;10.022;2023-03-01T03:10:19;6.97;;;3.58;;
58928;SDS011;44713;53.378;10.022;2023-03-01T03:12:51;5.15;;;3.53;;
58928;SDS011;44713;53.378;10.022;2023-03-01T03:15:20;3.75;;;2.60;;
58928;SDS011;44713;53.378;10.022;2023-03-01T03:17:47;10.25;;;3.88;;
58928;SDS011;44713;53.378;10.022;2023-03-01T03:20:14;6.50;;;3.13;;
58928;SDS011;44713;53.378;10.022;2023-03-01T03:22:44;4.43;;;3.47;;
58928;SDS011;44713;53.378;10.022;2023-03-01T03:25:11;7.20;;;3.20;;
58928;SDS011;44713;53.378;10.022;2023-03-01T03:27:37;4.78;;;2.95;;
58928;SDS011;44713;53.378;10.022;2023-03-01T03:30:04;5.43;;;2.78;;
58928;SDS011;44713;53.378;10.022;2023-03-01T03:32:36;4.90;;;2.92;;
58928;SDS011;44713;53.378;10.022;2023-03-01T03:35:03;5.70;;;2.90;;
58928;SDS011;44713;53.378;10.022;2023-03-01T03:37:38;4.70;;;3.38;;
58928;SDS011;44713;53.378;10.022;2023-03-01T03:40:23;6.20;;;3.45;;
58928;SDS011;44713;53.378;10.022;2023-03-01T03:42:48;5.38;;;2.80;;
58928;SDS011;44713;53.378;10.022;2023-03-01T03:45:14;5.35;;;2.78;;
58928;SDS011;44713;53.378;10.022;2023-03-01T03:47:40;5.15;;;2.72;;
58928;SDS011;44713;53.378;10.022;2023-03-01T03:50:06;5.63;;;2.70;;
58928;SDS011;44713;53.378;10.022;2023-03-01T03:52:33;5.40;;;2.67;;
58928;SDS011;44713;53.378;10.022;2023-03-01T03:54:58;5.82;;;2.70;;
58928;SDS011;44713;53.378;10.022;2023-03-01T03:57:23;3.20;;;2.25;;
58928;SDS011;44713;53.378;10.022;2023-03-01T03:59:49;4.50;;;2.33;;
58928;SDS011;44713;53.378;10.022;2023-03-01T04:02:14;4.85;;;2.65;;
58928;SDS011;44713;53.378;10.022;2023-03-01T04:04:47;4.15;;;2.55;;
58928;SDS011;44713;53.378;10.022;2023-03-01T04:07:15;4.57;;;2.65;;
58928;SDS011;44713;53.378;10.022;2023-03-01T04:09:41;3.80;;;2.30;;
58928;SDS011;44713;53.378;10.022;2023-03-01T04:12:08;4.22;;;2.22;;
58928;SDS011;44713;53.378;10.022;2023-03-01T04:14:33;3.72;;;2.33;;
58928;SDS011;44713;53.378;10.022;2023-03-01T04:16:58;5.65;;;2.75;;
58928;SDS011;44713;53.378;10.022;2023-03-01T04:19:24;5.50;;;2.13;;
58928;SDS011;44713;53.378;10.022;2023-03-01T04:21:49;4.95;;;3.17;;
58928;SDS011;44713;53.378;10.022;2023-03-01T04:24:15;4.18;;;2.28;;
58928;SDS011;44713;53.378;10.022;2023-03-01T04:26:40;6.18;;;2.47;;
58928;SDS011;44713;53.378;10.022;2023-03-01T04:29:05;4.80;;;2.47;;
58928;SDS011;44713;53.378;10.022;2023-03-01T04:31:31;6.85;;;2.60;;
58928;SDS011;44713;53.378;10.022;2023-03-01T04:33:56;4.95;;;2.38;;
58928;SDS011;44713;53.378;10.022;2023-03-01T04:36:23;3.63;;;2.30;;
58928;SDS011;44713;53.378;10.022;2023-03-01T04:38:51;3.58;;;2.47;;
58928;SDS011;44713;53.378;10.022;2023-03-01T04:41:17;4.53;;;2.85;;
58928;SDS011;44713;53.378;10.022;2023-03-01T04:43:44;5.00;;;2.47;;
58928;SDS011;44713;53.378;10.022;2023-03-01T04:46:11;6.75;;;2.53;;
58928;SDS011;44713;53.378;10.022;2023-03-01T04:48:38;4.95;;;2.55;;
58928;SDS011;44713;53.378;10.022;2023-03-01T04:51:05;4.97;;;2.70;;
58928;SDS011;44713;53.378;10.022;2023-03-01T04:53:32;3.60;;;2.33;;
58928;SDS011;44713;53.378;10.022;2023-03-01T04:55:58;6.10;;;2.40;;
58928;SDS011;44713;53.378;10.022;2023-03-01T04:58:24;4.05;;;2.75;;
58928;SDS011;44713;53.378;10.022;2023-03-01T05:00:51;4.57;;;2.70;;
58928;SDS011;44713;53.378;10.022;2023-03-01T05:03:18;5.70;;;2.83;;
58928;SDS011;44713;53.378;10.022;2023-03-01T05:05:44;3.97;;;2.58;;
58928;SDS011;44713;53.378;10.022;2023-03-01T05:08:11;5.43;;;2.60;;
58928;SDS011;44713;53.378;10.022;2023-03-01T05:10:42;5.80;;;2.70;;
58928;SDS011;44713;53.378;10.022;2023-03-01T05:13:18;8.48;;;3.05;;
58928;SDS011;44713;53.378;10.022;2023-03-01T05:15:54;5.57;;;2.72;;
58928;SDS011;44713;53.378;10.022;2023-03-01T05:18:21;4.22;;;2.47;;
58928;SDS011;44713;53.378;10.022;2023-03-01T05:20:51;4.55;;;2.47;;
58928;SDS011;44713;53.378;10.022;2023-03-01T05:23:23;4.03;;;2.42;;
58928;SDS011;44713;53.378;10.022;2023-03-01T05:25:49;4.93;;;2.25;;
58928;SDS011;44713;53.378;10.022;2023-03-01T05:28:18;6.57;;;2.67;;
58928;SDS011;44713;53.378;10.022;2023-03-01T05:30:44;6.50;;;2.72;;
58928;SDS011;44713;53.378;10.022;2023-03-01T05:33:10;4.70;;;2.42;;
58928;SDS011;44713;53.378;10.022;2023-03-01T05:35:41;6.22;;;2.72;;
58928;SDS011;44713;53.378;10.022;2023-03-01T05:38:11;5.53;;;3.00;;
58928;SDS011;44713;53.378;10.022;2023-03-01T05:40:44;7.72;;;3.17;;
58928;SDS011;44713;53.378;10.022;2023-03-01T05:43:11;6.07;;;3.33;;
58928;SDS011;44713;53.378;10.022;2023-03-01T05:45:38;3.95;;;2.42;;
58928;SDS011;44713;53.378;10.022;2023-03-01T05:48:04;4.63;;;2.75;;
58928;SDS011;44713;53.378;10.022;2023-03-01T05:50:32;5.07;;;3.28;;
58928;SDS011;44713;53.378;10.022;2023-03-01T05:53:18;7.90;;;5.05;;
58928;SDS011;44713;53.378;10.022;2023-03-01T05:55:47;10.43;;;6.43;;
58928;SDS011;44713;53.378;10.022;2023-03-01T05:58:15;11.48;;;5.97;;
58928;SDS011;44713;53.378;10.022;2023-03-01T06:00:43;9.77;;;6.15;;
58928;SDS011;44713;53.378;10.022;2023-03-01T06:03:10;11.02;;;6.50;;
58928;SDS011;44713;53.378;10.022;2023-03-01T06:05:37;12.95;;;7.00;;
58928;SDS011;44713;53.378;10.022;2023-03-01T06:08:02;9.20;;;5.68;;
58928;SDS011;44713;53.378;10.022;2023-03-01T06:10:28;8.57;;;5.20;;
58928;SDS011;44713;53.378;10.022;2023-03-01T06:12:53;10.38;;;5.78;;
58928;SDS011;44713;53.378;10.022;2023-03-01T06:15:19;10.10;;;5.20;;
58928;SDS011;44713;53.378;10.022;2023-03-01T06:17:45;8.13;;;5.53;;
58928;SDS011;44713;53.378;10.022;2023-03-01T06:20:18;7.43;;;5.28;;
58928;SDS011;44713;53.378;10.022;2023-03-01T06:22:45;5.88;;;3.40;;
58928;SDS011;44713;53.378;10.022;2023-03-01T06:25:13;6.25;;;2.80;;
58928;SDS011;44713;53.378;10.022;2023-03-01T06:27:40;5.57;;;2.85;;
58928;SDS011;44713;53.378;10.022;2023-03-01T06:30:07;5.38;;;3.30;;
58928;SDS011;44713;53.378;10.022;2023-03-01T06:32:34;7.88;;;3.25;;
58928;SDS011;44713;53.378;10.022;2023-03-01T06:35:00;4.85;;;2.97;;
58928;SDS011;44713;53.378;10.022;2023-03-01T06:37:25;4.57;;;2.72;;
58928;SDS011;44713;53.378;10.022;2023-03-01T06:39:51;6.53;;;2.60;;
58928;SDS011;44713;53.378;10.022;2023-03-01T06:42:17;5.85;;;2.72;;
58928;SDS011;44713;53.378;10.022;2023-03-01T06:44:43;3.42;;;2.63;;
58928;SDS011;44713;53.378;10.022;2023-03-01T06:47:09;5.43;;;3.00;;
58928;SDS011;44713;53.378;10.022;2023-03-01T06:49:34;4.72;;;2.55;;
58928;SDS011;44713;53.378;10.022;2023-03-01T06:51:59;3.60;;;2.30;;
58928;SDS011;44713;53.378;10.022;2023-03-01T06:54:25;4.75;;;2.80;;
58928;SDS011;44713;53.378;10.022;2023-03-01T06:56:50;5.53;;;2.78;;
58928;SDS011;44713;53.378;10.022;2023-03-01T06:59:16;5.53;;;2.45;;
58928;SDS011;44713;53.378;10.022;2023-03-01T07:01:42;5.78;;;2.95;;
58928;SDS011;44713;53.378;10.022;2023-03-01T07:04:08;4.35;;;2.83;;
58928;SDS011;44713;53.378;10.022;2023-03-01T07:06:34;6.80;;;2.55;;
58928;SDS011;44713;53.378;10.022;2023-03-01T07:09:00;6.30;;;2.65;;
58928;SDS011;44713;53.378;10.022;2023-03-01T07:11:25;5.25;;;2.83;;
58928;SDS011;44713;53.378;10.022;2023-03-01T07:13:50;5.50;;;2.90;;
58928;SDS011;44713;53.378;10.022;2023-03-01T07:16:16;4.75;;;2.75;;
58928;SDS011;44713;53.378;10.022;2023-03-01T07:18:41;4.20;;;2.75;;
58928;SDS011;44713;53.378;10.022;2023-03-01T07:21:07;6.90;;;2.72;;
58928;SDS011;44713;53.378;10.022;2023-03-01T07:23:34;3.45;;;2.50;;
58928;SDS011;44713;53.378;10.022;2023-03-01T07:26:00;4.28;;;2.42;;
58928;SDS011;44713;53.378;10.022;2023-03-01T07:28:26;4.32;;;2.75;;
58928;SDS011;44713;53.378;10.022;2023-03-01T07:30:52;7.32;;;3.78;;
58928;SDS011;44713;53.378;10.022;2023-03-01T07:33:18;6.43;;;2.90;;
58928;SDS011;44713;53.378;10.022;2023-03-01T07:35:43;5.22;;;3.17;;
58928;SDS011;44713;53.378;10.022;2023-03-01T07:38:09;5.70;;;3.45;;
58928;SDS011;44713;53.378;10.022;2023-03-01T07:40:34;6.43;;;3.13;;
58928;SDS011;44713;53.378;10.022;2023-03-01T07:43:00;6.43;;;3.45;;
58928;SDS011;44713;53.378;10.022;2023-03-01T07:45:26;5.00;;;3.28;;
58928;SDS011;44713;53.378;10.022;2023-03-01T07:47:54;4.68;;;3.05;;
58928;SDS011;44713;53.378;10.022;2023-03-01T07:50:21;5.45;;;3.70;;
58928;SDS011;44713;53.378;10.022;2023-03-01T07:52:47;7.75;;;3.15;;
58928;SDS011;44713;53.378;10.022;2023-03-01T07:55:13;5.75;;;3.47;;
58928;SDS011;44713;53.378;10.022;2023-03-01T07:57:39;6.22;;;2.90;;
58928;SDS011;44713;53.378;10.022;2023-03-01T08:00:04;6.97;;;3.28;;
58928;SDS011;44713;53.378;10.022;2023-03-01T08:02:37;6.60;;;3.05;;
58928;SDS011;44713;53.378;10.022;2023-03-01T08:05:02;5.78;;;3.88;;
58928;SDS011;44713;53.378;10.022;2023-03-01T08:07:28;5.43;;;3.53;;
58928;SDS011;44713;53.378;10.022;2023-03-01T08:09:54;5.15;;;3.33;;
58928;SDS011;44713;53.378;10.022;2023-03-01T08:12:19;6.32;;;2.83;;
58928;SDS011;44713;53.378;10.022;2023-03-01T08:14:44;10.13;;;3.97;;
58928;SDS011;44713;53.378;10.022;2023-03-01T08:17:10;5.78;;;3.28;;
58928;SDS011;44713;53.378;10.022;2023-03-01T08:19:35;6.00;;;3.40;;
58928;SDS011;44713;53.378;10.022;2023-03-01T08:22:01;5.63;;;3.28;;
58928;SDS011;44713;53.378;10.022;2023-03-01T08:24:27;7.15;;;3.63;;
58928;SDS011;44713;53.378;10.022;2023-03-01T08:26:53;6.32;;;3.60;;
58928;SDS011;44713;53.378;10.022;2023-03-01T08:29:18;7.03;;;3.30;;
58928;SDS011;44713;53.378;10.022;2023-03-01T08:31:44;8.73;;;4.00;;
58928;SDS011;44713;53.378;10.022;2023-03-01T08:34:11;7.53;;;3.78;;
58928;SDS011;44713;53.378;10.022;2023-03-01T08:36:38;6.63;;;3.53;;
58928;SDS011;44713;53.378;10.022;2023-03-01T08:39:05;8.63;;;3.58;;
58928;SDS011;44713;53.378;10.022;2023-03-01T08:41:32;5.93;;;3.08;;
58928;SDS011;44713;53.378;10.022;2023-03-01T08:43:58;5.82;;;3.53;;
58928;SDS011;44713;53.378;10.022;2023-03-01T08:46:27;10.18;;;3.72;;
58928;SDS011;44713;53.378;10.022;2023-03-01T08:48:54;5.90;;;3.50;;
58928;SDS011;44713;53.378;10.022;2023-03-01T08:51:20;7.90;;;3.63;;
58928;SDS011;44713;53.378;10.022;2023-03-01T08:53:46;9.50;;;3.67;;
58928;SDS011;44713;53.378;10.022;2023-03-01T08:56:12;5.05;;;3.42;;
58928;SDS011;44713;53.378;10.022;2023-03-01T08:58:38;10.60;;;3.50;;
58928;SDS011;44713;53.378;10.022;2023-03-01T09:01:11;9.27;;;4.32;;
58928;SDS011;44713;53.378;10.022;2023-03-01T09:03:38;8.70;;;3.95;;
58928;SDS011;44713;53.378;10.022;2023-03-01T09:06:04;11.60;;;4.53;;
58928;SDS011;44713;53.378;10.022;2023-03-01T09:08:43;11.43;;;4.05;;
58928;SDS011;44713;53.378;10.022;2023-03-01T09:11:10;9.82;;;4.00;;
58928;SDS011;44713;53.378;10.022;2023-03-01T09:13:37;9.70;;;4.35;;
58928;SDS011;44713;53.378;10.022;2023-03-01T09:16:03;8.02;;;3.97;;
58928;SDS011;44713;53.378;10.022;2023-03-01T09:18:30;8.70;;;4.10;;
58928;SDS011;44713;53.378;10.022;2023-03-01T09:21:05;8.57;;;4.03;;
58928;SDS011;44713;53.378;10.022;2023-03-01T09:23:34;6.55;;;4.10;;
58928;SDS011;44713;53.378;10.022;2023-03-01T09:26:01;8.15;;;3.88;;
58928;SDS011;44713;53.378;10.022;2023-03-01T09:28:27;11.07;;;4.47;;
58928;SDS011;44713;53.378;10.022;2023-03-01T09:30:52;7.32;;;4.28;;
58928;SDS011;44713;53.378;10.022;2023-03-01T09:33:20;7.95;;;4.72;;
58928;SDS011;44713;53.378;10.022;2023-03-01T09:35:45;8.10;;;4.00;;
58928;SDS011;44713;53.378;10.022;2023-03-01T09:38:12;9.07;;;4.28;;
58928;SDS011;44713;53.378;10.022;2023-03-01T09:40:41;9.23;;;6.05;;
58928;SDS011;44713;53.378;10.022;2023-03-01T09:43:11;8.18;;;4.18;;
58928;SDS011;44713;53.378;10.022;2023-03-01T09:45:45;8.43;;;3.95;;
58928;SDS011;44713;53.378;10.022;2023-03-01T09:48:16;17.27;;;5.35;;
58928;SDS011;44713;53.378;10.022;2023-03-01T09:50:43;7.93;;;4.22;;
58928;SDS011;44713;53.378;10.022;2023-03-01T09:53:15;9.10;;;4.45;;
58928;SDS011;44713;53.378;10.022;2023-03-01T09:55:44;5.38;;;4.05;;
58928;SDS011;44713;53.378;10.022;2023-03-01T10:06:39;9.82;;;5.30;;
58928;SDS011;44713;53.378;10.022;2023-03-01T10:09:12;12.02;;;4.78;;
58928;SDS011;44713;53.378;10.022;2023-03-01T10:11:45;9.52;;;5.18;;
58928;SDS011;44713;53.378;10.022;2023-03-01T10:16:58;10.73;;;5.90;;
58928;SDS011;44713;53.378;10.022;2023-03-01T10:19:32;8.73;;;5.90;;
58928;SDS011;44713;53.378;10.022;2023-03-01T10:22:09;11.43;;;6.35;;
58928;SDS011;44713;53.378;10.022;2023-03-01T10:24:40;11.85;;;7.00;;
58928;SDS011;44713;53.378;10.022;2023-03-01T10:27:07;13.00;;;7.57;;
58928;SDS011;44713;53.378;10.022;2023-03-01T10:30:01;11.57;;;6.95;;
58928;SDS011;44713;53.378;10.022;2023-03-01T10:32:41;10.90;;;6.78;;
58928;SDS011;44713;53.378;10.022;2023-03-01T10:35:15;13.10;;;6.90;;
58928;SDS011;44713;53.378;10.022;2023-03-01T10:37:55;11.85;;;7.20;;
58928;SDS011;44713;53.378;10.022;2023-03-01T10:40:28;14.90;;;7.55;;
58928;SDS011;44713;53.378;10.022;2023-03-01T10:42:54;10.27;;;7.30;;
58928;SDS011;44713;53.378;10.022;2023-03-01T10:48:11;13.55;;;8.00;;
58928;SDS011;44713;53.378;10.022;2023-03-01T10:50:44;14.93;;;8.18;;
58928;SDS011;44713;53.378;10.022;2023-03-01T10:56:16;13.57;;;8.38;;
58928;SDS011;44713;53.378;10.022;2023-03-01T10:59:04;16.08;;;8.55;;
58928;SDS011;44713;53.378;10.022;2023-03-01T11:01:29;15.68;;;8.38;;
58928;SDS011;44713;53.378;10.022;2023-03-01T11:06:32;23.52;;;9.00;;
58928;SDS011;44713;53.378;10.022;2023-03-01T11:09:01;13.02;;;7.53;;
58928;SDS011;44713;53.378;10.022;2023-03-01T11:11:40;13.07;;;8.15;;
58928;SDS011;44713;53.378;10.022;2023-03-01T11:14:07;13.07;;;8.93;;
58928;SDS011;44713;53.378;10.022;2023-03-01T11:16:47;14.10;;;9.00;;
58928;SDS011;44713;53.378;10.022;2023-03-01T11:19:25;19.73;;;8.88;;
58928;SDS011;44713;53.378;10.022;2023-03-01T11:21:53;16.42;;;8.65;;
58928;SDS011;44713;53.378;10.022;2023-03-01T11:24:43;14.50;;;8.98;;
58928;SDS011;44713;53.378;10.022;2023-03-01T11:27:32;18.08;;;9.25;;
58928;SDS011;44713;53.378;10.022;2023-03-01T11:29:59;16.25;;;9.20;;
58928;SDS011;44713;53.378;10.022;2023-03-01T11:32:27;20.25;;;9.85;;
58928;SDS011;44713;53.378;10.022;2023-03-01T11:35:03;19.70;;;8.88;;
58928;SDS011;44713;53.378;10.022;2023-03-01T11:37:40;14.27;;;9.40;;
58928;SDS011;44713;53.378;10.022;2023-03-01T11:40:17;16.02;;;9.65;;
58928;SDS011;44713;53.378;10.022;2023-03-01T11:46:02;18.88;;;9.40;;
58928;SDS011;44713;53.378;10.022;2023-03-01T11:51:46;13.43;;;9.30;;
58928;SDS011;44713;53.378;10.022;2023-03-01T12:00:30;14.85;;;9.75;;
58928;SDS011;44713;53.378;10.022;2023-03-01T12:14:14;14.73;;;10.00;;
58928;SDS011;44713;53.378;10.022;2023-03-01T12:22:43;21.45;;;10.57;;
58928;SDS011;44713;53.378;10.022;2023-03-01T12:25:32;18.15;;;10.80;;
58928;SDS011;44713;53.378;10.022;2023-03-01T12:28:24;17.40;;;10.45;;
58928;SDS011;44713;53.378;10.022;2023-03-01T12:47:50;16.35;;;9.30;;
58928;SDS011;44713;53.378;10.022;2023-03-01T12:50:28;13.13;;;9.80;;
58928;SDS011;44713;53.378;10.022;2023-03-01T12:53:05;12.55;;;9.20;;
58928;SDS011;44713;53.378;10.022;2023-03-01T12:55:42;11.82;;;9.43;;
58928;SDS011;44713;53.378;10.022;2023-03-01T13:00:59;17.20;;;9.30;;
58928;SDS011;44713;53.378;10.022;2023-03-01T13:03:36;14.88;;;9.32;;
58928;SDS011;44713;53.378;10.022;2023-03-01T13:11:35;15.85;;;9.20;;
58928;SDS011;44713;53.378;10.022;2023-03-01T13:16:48;14.98;;;8.75;;
58928;SDS011;44713;53.378;10.022;2023-03-01T13:19:18;15.07;;;9.57;;
58928;SDS011;44713;53.378;10.022;2023-03-01T13:21:45;11.60;;;8.40;;
58928;SDS011;44713;53.378;10.022;2023-03-01T13:24:28;11.65;;;8.30;;
58928;SDS011;44713;53.378;10.022;2023-03-01T13:29:53;11.52;;;8.63;;
58928;SDS011;44713;53.378;10.022;2023-03-01T13:32:23;11.23;;;7.88;;
58928;SDS011;44713;53.378;10.022;2023-03-01T13:35:00;15.23;;;8.07;;
58928;SDS011;44713;53.378;10.022;2023-03-01T13:37:34;15.02;;;8.38;;
58928;SDS011;44713;53.378;10.022;2023-03-01T13:40:02;10.57;;;8.00;;
58928;SDS011;44713;53.378;10.022;2023-03-01T13:44:58;14.75;;;8.88;;
58928;SDS011;44713;53.378;10.022;2023-03-01T13:47:24;11.35;;;7.53;;
58928;SDS011;44713;53.378;10.022;2023-03-01T13:50:00;14.00;;;8.73;;
58928;SDS011;44713;53.378;10.022;2023-03-01T13:55:03;12.10;;;8.15;;
58928;SDS011;44713;53.378;10.022;2023-03-01T13:57:35;14.50;;;8.25;;
58928;SDS011;44713;53.378;10.022;2023-03-01T14:00:04;11.48;;;7.78;;
58928;SDS011;44713;53.378;10.022;2023-03-01T14:02:30;12.07;;;7.80;;
58928;SDS011;44713;53.378;10.022;2023-03-01T14:04:59;10.93;;;8.25;;
58928;SDS011;44713;53.378;10.022;2023-03-01T14:07:26;11.88;;;7.72;;
58928;SDS011;44713;53.378;10.022;2023-03-01T14:09:56;14.48;;;7.13;;
58928;SDS011;44713;53.378;10.022;2023-03-01T14:15:13;10.52;;;7.38;;
58928;SDS011;44713;53.378;10.022;2023-03-01T14:17:49;10.20;;;7.25;;
58928;SDS011;44713;53.378;10.022;2023-03-01T14:20:23;12.80;;;7.45;;
58928;SDS011;44713;53.378;10.022;2023-03-01T14:22:52;12.35;;;7.55;;
58928;SDS011;44713;53.378;10.022;2023-03-01T14:25:24;11.77;;;7.60;;
58928;SDS011;44713;53.378;10.022;2023-03-01T14:28:11;10.07;;;7.25;;
58928;SDS011;44713;53.378;10.022;2023-03-01T14:30:41;13.70;;;8.25;;
58928;SDS011;44713;53.378;10.022;2023-03-01T14:33:21;10.40;;;8.05;;
58928;SDS011;44713;53.378;10.022;2023-03-01T14:35:53;12.60;;;7.55;;
58928;SDS011;44713;53.378;10.022;2023-03-01T14:38:29;11.40;;;7.63;;
58928;SDS011;44713;53.378;10.022;2023-03-01T14:41:00;13.77;;;7.20;;
58928;SDS011;44713;53.378;10.022;2023-03-01T14:43:30;10.30;;;7.07;;
58928;SDS011;44713;53.378;10.022;2023-03-01T14:45:56;10.70;;;7.22;;
58928;SDS011;44713;53.378;10.022;2023-03-01T14:48:22;10.60;;;7.07;;
58928;SDS011;44713;53.378;10.022;2023-03-01T14:50:48;13.82;;;8.05;;
58928;SDS011;44713;53.378;10.022;2023-03-01T14:53:25;12.82;;;6.93;;
58928;SDS011;44713;53.378;10.022;2023-03-01T14:55:59;11.15;;;7.32;;
58928;SDS011;44713;53.378;10.022;2023-03-01T14:58:31;10.35;;;7.15;;
58928;SDS011;44713;53.378;10.022;2023-03-01T15:00:59;11.05;;;7.20;;
58928;SDS011;44713;53.378;10.022;2023-03-01T15:05:55;13.15;;;7.03;;
58928;SDS011;44713;53.378;10.022;2023-03-01T15:08:22;9.82;;;6.40;;
58928;SDS011;44713;53.378;10.022;2023-03-01T15:13:25;10.90;;;6.05;;
58928;SDS011;44713;53.378;10.022;2023-03-01T15:15:51;8.63;;;5.90;;
58928;SDS011;44713;53.378;10.022;2023-03-01T15:18:26;10.07;;;6.80;;
58928;SDS011;44713;53.378;10.022;2023-03-01T15:20:53;10.88;;;6.40;;
58928;SDS011;44713;53.378;10.022;2023-03-01T15:23:21;11.82;;;7.38;;
58928;SDS011;44713;53.378;10.022;2023-03-01T15:25:54;9.73;;;6.45;;
58928;SDS011;44713;53.378;10.022;2023-03-01T15:28:28;10.48;;;6.60;;
58928;SDS011;44713;53.378;10.022;2023-03-01T15:30:57;10.18;;;7.28;;
58928;SDS011;44713;53.378;10.022;2023-03-01T15:33:31;10.77;;;7.63;;
58928;SDS011;44713;53.378;10.022;2023-03-01T15:36:01;10.60;;;6.63;;
58928;SDS011;44713;53.378;10.022;2023-03-01T15:38:36;11.63;;;6.85;;
58928;SDS011;44713;53.378;10.022;2023-03-01T15:41:23;9.77;;;7.53;;
58928;SDS011;44713;53.378;10.022;2023-03-01T15:43:51;8.70;;;7.00;;
58928;SDS011;44713;53.378;10.022;2023-03-01T15:46:31;9.32;;;6.80;;
58928;SDS011;44713;53.378;10.022;2023-03-01T15:49:03;13.43;;;7.00;;
58928;SDS011;44713;53.378;10.022;2023-03-01T15:51:35;10.85;;;6.32;;
58928;SDS011;44713;53.378;10.022;2023-03-01T15:54:03;9.52;;;7.05;;
58928;SDS011;44713;53.378;10.022;2023-03-01T15:56:38;8.95;;;6.50;;
58928;SDS011;44713;53.378;10.022;2023-03-01T15:59:03;10.10;;;5.90;;
58928;SDS011;44713;53.378;10.022;2023-03-01T16:01:29;9.13;;;6.45;;
58928;SDS011;44713;53.378;10.022;2023-03-01T16:03:55;9.65;;;6.47;;
58928;SDS011;44713;53.378;10.022;2023-03-01T16:06:23;15.52;;;6.18;;
58928;SDS011;44713;53.378;10.022;2023-03-01T16:08:48;11.77;;;6.15;;
58928;SDS011;44713;53.378;10.022;2023-03-01T16:11:15;10.15;;;6.32;;
58928;SDS011;44713;53.378;10.022;2023-03-01T16:13:43;11.23;;;6.70;;
58928;SDS011;44713;53.378;10.022;2023-03-01T16:16:09;9.15;;;6.00;;
58928;SDS011;44713;53.378;10.022;2023-03-01T16:18:37;11.95;;;6.32;;
58928;SDS011;44713;53.378;10.022;2023-03-01T16:21:03;14.07;;;5.75;;
58928;SDS011;44713;53.378;10.022;2023-03-01T16:23:29;8.98;;;5.80;;
58928;SDS011;44713;53.378;10.022;2023-03-01T16:25:58;8.60;;;5.70;;